createdAt,value
2023-05-04T00:00:41.728Z,2.43
2023-05-04T00:04:01.003Z,2.90
2023-05-04T00:07:04.770Z,2.60
2023-05-04T00:10:23.769Z,2.60
2023-05-04T00:13:39.799Z,2.90
2023-05-04T00:17:14.710Z,3.05
2023-05-04T00:20:18.727Z,3.10
2023-05-04T00:23:37.640Z,2.73
2023-05-04T00:26:41.866Z,2.70
2023-05-04T00:29:57.730Z,2.63
2023-05-04T00:33:17.818Z,3.10
2023-05-04T00:36:36.721Z,3.10
2023-05-04T00:39:52.848Z,2.67
2023-05-04T00:43:11.966Z,2.50
2023-05-04T00:46:15.798Z,2.80
2023-05-04T00:49:48.820Z,2.50
2023-05-04T00:53:04.829Z,2.90
2023-05-04T00:56:32.882Z,2.83
2023-05-04T00:59:48.932Z,3.10
2023-05-04T01:03:08.111Z,3.23
2023-05-04T01:06:37.829Z,3.07
2023-05-04T01:10:07.168Z,2.70
2023-05-04T01:13:22.975Z,3.00
2023-05-04T01:16:38.995Z,3.10
2023-05-04T01:19:42.849Z,3.47
2023-05-04T01:23:14.918Z,3.30
2023-05-04T01:26:30.935Z,2.87
2023-05-04T01:30:00.075Z,3.40
2023-05-04T01:33:16.110Z,3.47
2023-05-04T01:36:50.057Z,2.65
2023-05-04T01:40:07.960Z,3.30
2023-05-04T01:43:24.002Z,3.23
2023-05-04T01:46:52.078Z,3.70
2023-05-04T01:50:09.053Z,3.40
2023-05-04T01:53:13.088Z,3.40
2023-05-04T01:56:47.959Z,3.30
2023-05-04T02:00:15.955Z,3.33
2023-05-04T02:03:35.163Z,3.77
2023-05-04T02:06:39.071Z,3.70
2023-05-04T02:09:55.091Z,3.47
2023-05-04T02:13:15.213Z,3.70
2023-05-04T02:16:31.223Z,3.00
2023-05-04T02:19:47.115Z,3.80
2023-05-04T02:23:06.178Z,3.40
2023-05-04T02:26:22.179Z,3.83
2023-05-04T02:29:54.258Z,3.90
2023-05-04T02:32:58.233Z,3.93
2023-05-04T02:36:17.063Z,4.45
2023-05-04T02:39:36.102Z,3.97
2023-05-04T02:42:40.085Z,3.80
2023-05-04T02:46:12.337Z,3.90
2023-05-04T02:49:16.136Z,3.57
2023-05-04T02:52:35.208Z,4.10
2023-05-04T02:55:39.433Z,3.83
2023-05-04T02:58:58.276Z,4.17
2023-05-04T03:02:18.255Z,4.10
2023-05-04T03:05:34.247Z,4.20
2023-05-04T03:08:38.305Z,3.90
2023-05-04T03:11:57.246Z,4.53
2023-05-04T03:15:01.308Z,4.13
2023-05-04T03:18:37.326Z,4.20
2023-05-04T03:21:53.239Z,4.23
2023-05-04T03:25:09.356Z,4.50
2023-05-04T03:28:13.386Z,4.93
2023-05-04T03:31:32.614Z,4.37
2023-05-04T03:35:04.319Z,4.30
2023-05-04T03:38:23.357Z,4.30
2023-05-04T03:41:39.414Z,4.63
2023-05-04T03:44:55.356Z,5.10
2023-05-04T03:48:11.432Z,3.90
2023-05-04T03:51:41.391Z,4.30
2023-05-04T03:54:57.324Z,4.43
2023-05-04T03:58:16.392Z,4.10
2023-05-04T04:01:47.417Z,4.43
2023-05-04T04:05:06.319Z,4.10
2023-05-04T04:08:35.500Z,5.70
2023-05-04T04:11:54.499Z,4.17
2023-05-04T04:14:58.457Z,4.60
2023-05-04T04:18:14.525Z,4.13
2023-05-04T04:21:30.470Z,4.60
2023-05-04T04:25:00.566Z,5.20
2023-05-04T04:28:04.506Z,4.33
2023-05-04T04:31:20.526Z,4.47
2023-05-04T04:34:24.566Z,4.53
2023-05-04T04:37:43.548Z,4.60
2023-05-04T04:41:00.564Z,4.50
2023-05-04T04:44:19.520Z,4.40
2023-05-04T04:47:35.585Z,4.70
2023-05-04T04:51:07.628Z,4.90
2023-05-04T04:54:11.528Z,4.90
2023-05-04T04:57:46.645Z,4.40
2023-05-04T05:00:50.665Z,4.87
2023-05-04T05:04:18.792Z,4.13
2023-05-04T05:07:22.819Z,4.60
2023-05-04T05:10:43.840Z,5.00
2023-05-04T05:14:01.587Z,4.50
2023-05-04T05:17:20.718Z,5.03
2023-05-04T05:20:24.592Z,4.87
2023-05-04T05:23:43.714Z,5.27
2023-05-04T05:26:47.627Z,4.83
2023-05-04T05:30:22.894Z,4.83
2023-05-04T05:33:26.695Z,4.80
2023-05-04T05:36:42.799Z,4.50
2023-05-04T05:39:46.706Z,4.25
2023-05-04T05:43:05.823Z,4.97
2023-05-04T05:46:25.720Z,5.20
2023-05-04T05:49:46.269Z,5.20
2023-05-04T05:52:48.810Z,4.67
2023-05-04T05:56:07.852Z,5.10
2023-05-04T05:59:11.791Z,5.20
2023-05-04T06:02:44.834Z,5.27
2023-05-04T06:06:00.835Z,4.93
2023-05-04T06:09:04.935Z,4.67
2023-05-04T06:12:23.825Z,5.00
2023-05-04T06:15:27.850Z,4.57
2023-05-04T06:18:57.074Z,5.10
2023-05-04T06:22:13.061Z,5.30
2023-05-04T06:25:31.907Z,4.80
2023-05-04T06:28:35.903Z,4.83
2023-05-04T06:31:55.015Z,4.90
2023-05-04T06:35:11.967Z,5.03
2023-05-04T06:38:30.828Z,4.80
2023-05-04T06:41:34.928Z,4.60
2023-05-04T06:45:06.872Z,4.93
2023-05-04T06:48:11.041Z,5.10
2023-05-04T06:51:43.099Z,4.67
2023-05-04T06:54:46.874Z,5.10
2023-05-04T06:58:02.952Z,4.70
2023-05-04T07:01:07.094Z,4.83
2023-05-04T07:04:25.937Z,5.50
2023-05-04T07:07:46.312Z,5.00
2023-05-04T07:11:04.932Z,4.50
2023-05-04T07:14:21.096Z,4.35
2023-05-04T07:17:52.074Z,4.77
2023-05-04T07:21:25.989Z,4.47
2023-05-04T07:24:41.175Z,5.40
2023-05-04T07:27:45.019Z,4.87
2023-05-04T07:31:04.061Z,4.37
2023-05-04T07:34:08.130Z,4.37
2023-05-04T07:37:39.144Z,5.70
2023-05-04T07:40:56.206Z,4.60
2023-05-04T07:44:15.129Z,4.47
2023-05-04T07:47:19.075Z,4.17
2023-05-04T07:50:38.168Z,4.83
2023-05-04T07:53:42.214Z,4.13
2023-05-04T07:57:18.146Z,4.95
2023-05-04T08:00:35.199Z,3.85
2023-05-04T08:03:54.294Z,4.07
2023-05-04T08:06:58.117Z,4.87
2023-05-04T08:10:17.183Z,4.35
2023-05-04T08:13:41.156Z,4.30
2023-05-04T08:16:57.223Z,4.25
2023-05-04T08:20:01.238Z,4.57
2023-05-04T08:23:17.173Z,4.30
2023-05-04T08:26:21.413Z,4.20
2023-05-04T08:29:53.221Z,4.35
2023-05-04T08:32:59.238Z,4.17
2023-05-04T08:36:30.191Z,3.60
2023-05-04T08:39:34.293Z,4.07
2023-05-04T08:43:07.250Z,4.05
2023-05-04T08:46:24.433Z,3.90
2023-05-04T08:49:43.407Z,3.50
2023-05-04T08:53:03.340Z,4.20
2023-05-04T08:56:34.282Z,3.73
2023-05-04T08:59:53.333Z,3.90
2023-05-04T09:03:26.459Z,3.90
2023-05-04T09:06:42.418Z,3.83
2023-05-04T09:10:11.406Z,3.85
2023-05-04T09:13:15.686Z,3.50
2023-05-04T09:16:47.448Z,3.87
2023-05-04T09:20:07.449Z,3.97
2023-05-04T09:23:38.493Z,3.40
2023-05-04T09:26:54.467Z,3.43
2023-05-04T09:30:22.426Z,3.00
2023-05-04T09:33:38.474Z,3.23
2023-05-04T09:37:08.591Z,4.03
2023-05-04T09:40:24.436Z,3.30
2023-05-04T09:44:03.470Z,3.57
2023-05-04T09:47:19.487Z,3.60
2023-05-04T09:50:47.512Z,3.10
2023-05-04T09:54:07.558Z,3.70
2023-05-04T09:57:41.549Z,4.00
2023-05-04T10:00:57.563Z,3.33
2023-05-04T10:04:25.606Z,3.37
2023-05-04T10:07:29.544Z,3.03
2023-05-04T10:10:58.625Z,2.90
2023-05-04T10:14:17.513Z,2.97
2023-05-04T10:17:45.586Z,3.20
2023-05-04T10:21:05.626Z,2.50
2023-05-04T10:24:47.527Z,3.20
2023-05-04T10:28:09.588Z,2.90
2023-05-04T10:31:41.746Z,2.80
2023-05-04T10:34:57.551Z,2.60
2023-05-04T10:38:28.638Z,2.47
2023-05-04T10:41:44.657Z,2.75
2023-05-04T10:45:19.711Z,2.50
2023-05-04T10:48:35.738Z,2.50
2023-05-04T10:51:52.684Z,3.03
2023-05-04T10:55:08.725Z,2.10
2023-05-04T10:58:37.770Z,2.40
2023-05-04T11:01:54.674Z,2.45
2023-05-04T11:05:26.752Z,2.87
2023-05-04T11:08:45.786Z,3.03
2023-05-04T11:12:16.906Z,2.35
2023-05-04T11:15:35.808Z,2.55
2023-05-04T11:19:10.768Z,2.50
2023-05-04T11:22:27.113Z,2.37
2023-05-04T11:26:02.645Z,2.30
2023-05-04T11:29:18.879Z,2.53
2023-05-04T11:32:37.944Z,2.37
2023-05-04T11:35:57.772Z,2.30
2023-05-04T11:39:25.970Z,2.55
2023-05-04T11:42:29.773Z,2.90
2023-05-04T11:46:01.947Z,2.30
2023-05-04T11:49:17.742Z,2.40
2023-05-04T11:52:50.812Z,2.10
2023-05-04T11:56:09.022Z,2.57
2023-05-04T11:59:24.896Z,2.20
2023-05-04T12:02:41.996Z,2.13
2023-05-04T12:06:12.864Z,2.27
2023-05-04T12:09:32.965Z,1.70
2023-05-04T12:13:02.071Z,2.17
2023-05-04T12:16:05.950Z,2.35
2023-05-04T12:19:34.900Z,2.00
2023-05-04T12:22:53.170Z,1.70
2023-05-04T12:26:25.122Z,1.80
2023-05-04T12:29:29.064Z,1.80
2023-05-04T12:32:48.076Z,2.00
2023-05-04T12:35:52.170Z,1.70
2023-05-04T12:39:12.012Z,1.70
2023-05-04T12:42:33.756Z,1.80
2023-05-04T12:46:00.775Z,1.90
2023-05-04T12:49:12.292Z,1.60
2023-05-04T12:52:45.777Z,1.80
2023-05-04T12:56:16.315Z,2.23
2023-05-04T13:00:04.913Z,1.50
2023-05-04T13:03:32.195Z,1.60
2023-05-04T13:07:05.276Z,2.17
2023-05-04T13:10:33.209Z,2.57
2023-05-04T13:13:59.495Z,1.83
2023-05-04T13:17:23.906Z,1.90
2023-05-04T13:20:51.581Z,2.00
2023-05-04T13:24:23.458Z,2.10
2023-05-04T13:28:03.114Z,1.90
2023-05-04T13:31:18.339Z,2.00
2023-05-04T13:35:08.312Z,2.10
2023-05-04T13:38:27.370Z,2.07
2023-05-04T13:41:48.145Z,1.73
2023-05-04T13:44:52.248Z,2.00
2023-05-04T13:48:08.281Z,2.20
2023-05-04T13:51:28.282Z,2.13
2023-05-04T13:54:47.274Z,2.30
2023-05-04T13:57:51.334Z,1.90
2023-05-04T14:01:10.427Z,2.00
2023-05-04T14:04:27.241Z,2.57
2023-05-04T14:07:44.401Z,2.10
2023-05-04T14:11:00.386Z,1.87
2023-05-04T14:14:16.317Z,2.15
2023-05-04T14:17:44.449Z,1.80
2023-05-04T14:20:48.325Z,1.70
2023-05-04T14:24:17.535Z,2.43
2023-05-04T14:27:21.316Z,2.00
2023-05-04T14:30:37.591Z,2.10
2023-05-04T14:33:42.439Z,2.57
2023-05-04T14:37:01.390Z,1.80
2023-05-04T14:40:18.467Z,2.00
2023-05-04T14:43:37.461Z,2.40
2023-05-04T14:46:41.425Z,2.40
2023-05-04T14:50:16.342Z,1.80
2023-05-04T14:53:20.373Z,1.75
2023-05-04T14:56:49.582Z,2.17
2023-05-04T15:00:05.745Z,2.30
2023-05-04T15:03:24.486Z,2.20
2023-05-04T15:06:28.515Z,2.60
2023-05-04T15:09:47.469Z,2.30
2023-05-04T15:13:04.642Z,2.50
2023-05-04T15:16:36.540Z,2.40
2023-05-04T15:19:40.520Z,2.43
2023-05-04T15:23:08.570Z,2.23
2023-05-04T15:26:12.496Z,2.40
2023-05-04T15:29:41.683Z,1.90
2023-05-04T15:32:57.674Z,1.90
2023-05-04T15:36:25.559Z,2.40
2023-05-04T15:39:44.388Z,2.03
2023-05-04T15:43:00.535Z,2.00
2023-05-04T15:46:17.574Z,2.20
2023-05-04T15:49:36.625Z,2.15
2023-05-04T15:52:40.718Z,2.17
2023-05-04T15:56:11.606Z,1.93
2023-05-04T15:59:15.538Z,2.03
2023-05-04T16:02:46.812Z,1.97
2023-05-04T16:06:08.702Z,2.43
2023-05-04T16:09:12.861Z,2.73
2023-05-04T16:12:28.706Z,2.40
2023-05-04T16:15:44.857Z,2.50
2023-05-04T16:19:17.543Z,2.33
2023-05-04T16:22:21.772Z,2.60
2023-05-04T16:25:50.773Z,2.40
2023-05-04T16:28:54.733Z,2.47
2023-05-04T16:32:10.681Z,2.60
2023-05-04T16:35:27.906Z,2.90
2023-05-04T16:38:43.714Z,2.75
2023-05-04T16:42:02.917Z,2.80
2023-05-04T16:45:34.691Z,3.05
2023-05-04T16:48:38.818Z,3.00
2023-05-04T16:52:13.852Z,2.77
2023-05-04T16:55:29.853Z,2.87
2023-05-04T16:58:48.799Z,4.15
2023-05-04T17:01:52.957Z,2.80
2023-05-04T17:05:08.849Z,3.25
2023-05-04T17:08:25.843Z,3.07
2023-05-04T17:11:41.922Z,3.33
2023-05-04T17:14:57.947Z,2.70
2023-05-04T17:18:26.906Z,2.80
2023-05-04T17:21:42.785Z,3.40
2023-05-04T17:25:14.853Z,3.30
2023-05-04T17:28:18.881Z,3.03
2023-05-04T17:31:46.999Z,2.80
2023-05-04T17:35:12.231Z,3.17
2023-05-04T17:38:18.958Z,3.10
2023-05-04T17:41:38.998Z,2.90
2023-05-04T17:44:56.019Z,2.70
2023-05-04T17:48:00.011Z,2.40
2023-05-04T17:51:31.113Z,2.60
2023-05-04T17:54:35.072Z,2.80
2023-05-04T17:58:06.909Z,3.65
2023-05-04T18:01:10.954Z,2.67
2023-05-04T18:04:30.030Z,3.30
2023-05-04T18:07:34.119Z,2.97
2023-05-04T18:10:50.220Z,3.10
2023-05-04T18:14:07.175Z,3.20
2023-05-04T18:17:26.113Z,2.87
2023-05-04T18:20:30.041Z,2.63
2023-05-04T18:23:46.142Z,2.77
2023-05-04T18:26:50.017Z,2.97
2023-05-04T18:30:20.218Z,2.80
2023-05-04T18:33:24.304Z,2.90
2023-05-04T18:36:47.536Z,2.83
2023-05-04T18:39:50.102Z,2.60
2023-05-04T18:43:06.252Z,2.70
2023-05-04T18:46:23.237Z,3.37
2023-05-04T18:49:42.071Z,3.17
2023-05-04T18:52:59.094Z,3.07
2023-05-04T18:56:27.253Z,2.97
2023-05-04T18:59:31.718Z,3.00
2023-05-04T19:03:05.209Z,2.60
2023-05-04T19:06:21.144Z,2.40
2023-05-04T19:09:40.261Z,2.70
2023-05-04T19:12:44.442Z,2.47
2023-05-04T19:16:01.984Z,2.53
2023-05-04T19:19:20.331Z,2.90
2023-05-04T19:22:37.439Z,2.77
2023-05-04T19:25:44.414Z,2.40
2023-05-04T19:29:03.350Z,2.80
2023-05-04T19:32:24.714Z,2.80
2023-05-04T19:35:52.386Z,2.87
2023-05-04T19:38:56.356Z,2.93
2023-05-04T19:42:15.317Z,2.70
2023-05-04T19:45:31.262Z,3.17
2023-05-04T19:48:47.311Z,2.57
2023-05-04T19:52:07.412Z,2.63
2023-05-04T19:55:26.343Z,3.20
2023-05-04T19:58:30.404Z,2.30
2023-05-04T20:01:49.417Z,3.13
2023-05-04T20:05:06.408Z,2.43
2023-05-04T20:08:26.333Z,3.23
2023-05-04T20:11:42.454Z,3.00
2023-05-04T20:14:46.396Z,2.57
2023-05-04T20:18:14.423Z,2.70
2023-05-04T20:21:30.551Z,2.40
2023-05-04T20:25:02.432Z,2.70
2023-05-04T20:28:06.459Z,2.43
2023-05-04T20:31:23.485Z,2.80
2023-05-04T20:34:30.705Z,2.70
2023-05-04T20:37:51.641Z,2.85
2023-05-04T20:41:12.500Z,2.53
2023-05-04T20:44:29.446Z,2.77
2023-05-04T20:47:48.521Z,2.60
2023-05-04T20:51:20.494Z,2.60
2023-05-04T20:54:24.959Z,2.63
2023-05-04T20:57:56.661Z,2.60
2023-05-04T21:01:01.531Z,2.97
2023-05-04T21:04:18.605Z,2.60
2023-05-04T21:07:22.672Z,2.63
2023-05-04T21:10:41.635Z,2.53
2023-05-04T21:14:01.810Z,2.63
2023-05-04T21:17:20.553Z,2.67
2023-05-04T21:20:39.649Z,2.37
2023-05-04T21:23:58.652Z,2.60
2023-05-04T21:27:05.675Z,2.67
2023-05-04T21:30:37.655Z,2.90
2023-05-04T21:33:53.708Z,3.10
2023-05-04T21:37:09.809Z,3.13
2023-05-04T21:40:25.663Z,3.03
2023-05-04T21:43:44.890Z,2.73
2023-05-04T21:47:04.664Z,3.17
2023-05-04T21:50:23.775Z,2.87
2023-05-04T21:53:27.711Z,2.90
2023-05-04T21:56:46.646Z,3.60
2023-05-04T21:59:50.826Z,2.60
2023-05-04T22:03:15.675Z,3.17
2023-05-04T22:06:34.792Z,2.80
2023-05-04T22:09:50.838Z,3.13
2023-05-04T22:13:09.976Z,3.10
2023-05-04T22:16:13.843Z,3.00
2023-05-04T22:19:42.930Z,3.10
2023-05-04T22:22:46.851Z,3.30
2023-05-04T22:26:17.763Z,3.17
2023-05-04T22:29:21.878Z,3.50
2023-05-04T22:32:40.937Z,3.10
2023-05-04T22:36:00.880Z,3.20
2023-05-04T22:39:19.839Z,3.00
2023-05-04T22:42:23.812Z,3.00
2023-05-04T22:45:42.931Z,3.00
2023-05-04T22:48:46.859Z,3.03
2023-05-04T22:52:22.037Z,3.55
2023-05-04T22:55:25.825Z,2.80
2023-05-04T22:58:41.928Z,4.15
2023-05-04T23:01:45.956Z,3.10
2023-05-04T23:05:02.097Z,3.00
2023-05-04T23:08:21.882Z,3.80
2023-05-04T23:11:40.970Z,3.13
2023-05-04T23:14:47.885Z,3.05
2023-05-04T23:18:07.166Z,3.50
2023-05-04T23:21:10.990Z,3.23
2023-05-04T23:24:40.124Z,3.30
2023-05-04T23:27:43.964Z,3.33
2023-05-04T23:31:01.054Z,3.73
2023-05-04T23:34:05.053Z,3.75
2023-05-04T23:37:21.162Z,3.73
2023-05-04T23:40:38.977Z,3.30
2023-05-04T23:43:55.038Z,3.90
2023-05-04T23:46:59.125Z,3.33
2023-05-04T23:50:30.117Z,3.40
2023-05-04T23:53:34.077Z,3.20
2023-05-04T23:57:06.043Z,3.45
